createdAt,value
2022-10-18T00:00:49.640Z,16.82
2022-10-18T00:03:36.154Z,16.91
2022-10-18T00:06:04.858Z,16.86
2022-10-18T00:08:33.542Z,16.54
2022-10-18T00:11:01.045Z,16.23
2022-10-18T00:13:28.509Z,16.12
2022-10-18T00:15:57.911Z,16.09
2022-10-18T00:18:25.345Z,16.27
2022-10-18T00:21:01.338Z,16.33
2022-10-18T00:23:31.092Z,16.45
2022-10-18T00:26:02.749Z,16.46
2022-10-18T00:28:30.447Z,16.34
2022-10-18T00:30:58.097Z,16.45
2022-10-18T00:33:25.291Z,16.55
2022-10-18T00:35:52.890Z,16.63
2022-10-18T00:38:20.300Z,16.67
2022-10-18T00:40:47.859Z,16.75
2022-10-18T00:43:18.623Z,16.73
2022-10-18T00:45:46.185Z,16.66
2022-10-18T00:48:15.808Z,16.52
2022-10-18T00:50:43.917Z,16.40
2022-10-18T00:53:16.282Z,16.48
2022-10-18T00:55:45.104Z,16.40
2022-10-18T00:58:15.093Z,16.44
2022-10-18T01:00:44.348Z,16.38
2022-10-18T01:03:11.837Z,16.38
2022-10-18T01:05:44.144Z,16.35
2022-10-18T01:08:32.242Z,16.44
2022-10-18T01:11:12.203Z,16.35
2022-10-18T01:13:49.843Z,16.36
2022-10-18T01:16:27.481Z,16.43
2022-10-18T01:19:00.582Z,16.52
2022-10-18T01:21:36.105Z,16.52
2022-10-18T01:24:26.852Z,16.29
2022-10-18T01:27:24.649Z,16.01
2022-10-18T01:30:07.717Z,15.84
2022-10-18T01:35:27.879Z,15.76
2022-10-18T01:40:47.399Z,15.53
2022-10-18T01:43:16.644Z,15.41
2022-10-18T01:45:44.098Z,15.38
2022-10-18T01:48:14.859Z,15.48
2022-10-18T01:50:42.381Z,15.33
2022-10-18T01:53:23.175Z,14.89
2022-10-18T01:56:00.161Z,14.56
2022-10-18T01:58:36.019Z,14.56
2022-10-18T02:01:08.457Z,14.46
2022-10-18T02:03:44.020Z,14.42
2022-10-18T02:06:19.997Z,14.53
2022-10-18T02:08:52.550Z,14.48
2022-10-18T02:11:20.530Z,14.48
2022-10-18T02:13:51.820Z,14.55
2022-10-18T02:16:22.552Z,14.66
2022-10-18T02:18:57.585Z,14.74
2022-10-18T02:21:25.922Z,14.76
2022-10-18T02:23:54.659Z,14.71
2022-10-18T02:26:22.072Z,14.63
2022-10-18T02:28:49.640Z,14.61
2022-10-18T02:31:21.920Z,14.39
2022-10-18T02:33:56.082Z,14.38
2022-10-18T02:36:28.950Z,14.37
2022-10-18T02:39:03.228Z,14.42
2022-10-18T02:41:31.749Z,14.52
2022-10-18T04:17:13.697Z,12.40
2022-10-18T04:19:41.463Z,12.42
2022-10-18T04:22:08.885Z,12.53
2022-10-18T04:24:36.466Z,12.36
2022-10-18T04:27:04.724Z,12.22
2022-10-18T04:29:32.712Z,12.21
2022-10-18T04:32:00.404Z,12.35
2022-10-18T04:34:29.461Z,12.32
2022-10-18T04:36:56.809Z,12.35
2022-10-18T04:39:24.747Z,12.32
2022-10-18T04:41:52.248Z,12.38
2022-10-18T04:44:19.956Z,12.34
2022-10-18T04:46:47.159Z,12.16
2022-10-18T04:49:14.759Z,12.06
2022-10-18T04:51:43.341Z,11.89
2022-10-18T04:54:10.973Z,11.98
2022-10-18T04:56:38.426Z,11.99
2022-10-18T04:59:05.949Z,12.03
2022-10-18T05:01:33.362Z,11.99
2022-10-18T05:04:01.019Z,12.00
2022-10-18T05:06:30.496Z,11.99
2022-10-18T05:08:59.519Z,11.95
2022-10-18T05:11:26.993Z,12.04
2022-10-18T05:13:54.720Z,12.11
2022-10-18T05:16:22.310Z,12.05
2022-10-18T05:18:51.007Z,11.91
2022-10-18T05:21:18.481Z,11.99
2022-10-18T05:23:46.147Z,12.23
2022-10-18T05:26:14.891Z,12.09
2022-10-18T05:28:42.654Z,12.07
2022-10-18T05:31:11.290Z,12.05
2022-10-18T05:33:39.150Z,12.02
2022-10-18T05:36:07.223Z,11.95
2022-10-18T05:41:06.989Z,11.88
2022-10-18T05:43:36.113Z,11.78
2022-10-18T05:46:04.029Z,11.67
2022-10-18T05:48:31.843Z,11.65
2022-10-18T05:53:42.674Z,11.56
2022-10-18T05:56:10.250Z,11.56
2022-10-18T05:58:39.957Z,11.66
2022-10-18T06:01:07.430Z,11.74
2022-10-18T06:03:35.388Z,11.73
2022-10-18T06:06:04.409Z,11.86
2022-10-18T06:08:33.127Z,11.92
2022-10-18T06:11:05.623Z,12.03
2022-10-18T06:13:35.204Z,12.05
2022-10-18T06:16:04.280Z,12.26
2022-10-18T06:18:31.778Z,12.41
2022-10-18T06:21:01.899Z,12.55
2022-10-18T06:23:30.464Z,12.65
2022-10-18T06:25:59.637Z,12.77
2022-10-18T06:28:29.800Z,13.00
2022-10-18T06:30:57.790Z,13.18
2022-10-18T06:33:26.812Z,13.38
2022-10-18T06:35:55.587Z,13.55
2022-10-18T06:38:23.064Z,13.75
2022-10-18T06:40:50.304Z,13.99
2022-10-18T06:43:20.960Z,14.09
2022-10-18T06:45:49.043Z,14.26
2022-10-18T06:48:17.180Z,14.36
2022-10-18T06:50:53.572Z,14.28
2022-10-18T06:53:21.628Z,14.37
2022-10-18T06:55:49.043Z,14.49
2022-10-18T06:58:16.897Z,14.52
2022-10-18T07:00:44.597Z,14.69
2022-10-18T07:03:13.991Z,14.85
2022-10-18T07:05:41.391Z,14.98
2022-10-18T07:08:10.434Z,15.07
2022-10-18T07:10:37.760Z,15.20
2022-10-18T07:13:30.907Z,15.44
2022-10-18T07:16:04.749Z,15.54
2022-10-18T07:18:33.265Z,15.67
2022-10-18T07:21:02.305Z,15.94
2022-10-18T07:23:32.778Z,16.23
2022-10-18T07:26:00.136Z,16.63
2022-10-18T07:28:28.508Z,16.94
2022-10-18T07:30:56.426Z,16.89
2022-10-18T07:33:24.157Z,16.91
2022-10-18T07:35:51.481Z,17.19
2022-10-18T07:38:19.046Z,17.64
2022-10-18T07:40:47.858Z,17.83
2022-10-18T07:43:15.468Z,17.98
2022-10-18T07:45:51.959Z,17.94
2022-10-18T07:48:19.692Z,18.07
2022-10-18T07:50:47.169Z,18.28
2022-10-18T07:53:15.145Z,18.73
2022-10-18T07:55:42.496Z,18.80
2022-10-18T07:58:11.698Z,19.03
2022-10-18T08:00:39.670Z,19.17
2022-10-18T08:05:53.043Z,19.23
2022-10-18T08:08:21.364Z,19.29
2022-10-18T08:10:48.771Z,19.28
2022-10-18T08:13:18.042Z,19.56
2022-10-18T08:15:46.291Z,19.62
2022-10-18T08:18:13.944Z,19.94
2022-10-18T08:20:44.256Z,19.74
2022-10-18T08:23:12.732Z,20.11
2022-10-18T08:25:40.253Z,19.85
2022-10-18T08:28:08.254Z,20.17
2022-10-18T08:30:36.973Z,20.08
2022-10-18T08:33:04.612Z,20.09
2022-10-18T08:35:32.300Z,20.15
2022-10-18T08:38:00.011Z,20.43
2022-10-18T08:40:27.946Z,20.64
2022-10-18T08:43:03.516Z,20.81
2022-10-18T08:45:42.022Z,20.78
2022-10-18T08:48:20.489Z,20.84
2022-10-18T08:50:49.745Z,21.15
2022-10-18T08:53:23.247Z,21.28
2022-10-18T08:55:54.878Z,21.33
2022-10-18T08:58:24.214Z,21.50
2022-10-18T09:01:03.188Z,21.17
2022-10-18T09:03:56.841Z,21.02
2022-10-18T09:06:30.922Z,20.94
2022-10-18T09:09:20.788Z,20.97
2022-10-18T09:12:01.872Z,21.06
2022-10-18T09:14:54.479Z,21.01
2022-10-18T09:17:33.119Z,21.10
2022-10-18T09:20:23.249Z,21.45
2022-10-18T09:22:54.775Z,21.66
2022-10-18T09:25:26.502Z,21.68
2022-10-18T09:27:56.345Z,21.74
2022-10-18T09:30:37.241Z,21.73
2022-10-18T09:33:19.978Z,22.03
2022-10-18T09:35:53.727Z,22.17
2022-10-18T09:38:26.588Z,22.58
2022-10-18T09:40:58.685Z,22.56
2022-10-18T09:43:37.390Z,22.64
2022-10-18T09:46:05.759Z,22.62
2022-10-18T09:48:39.012Z,22.64
2022-10-18T09:51:12.539Z,22.59
2022-10-18T09:53:46.252Z,22.60
2022-10-18T09:56:17.928Z,22.58
2022-10-18T09:58:47.371Z,22.52
2022-10-18T10:01:19.725Z,22.56
2022-10-18T10:03:47.275Z,22.86
2022-10-18T10:06:22.734Z,23.04
2022-10-18T10:08:55.453Z,23.14
2022-10-18T10:11:29.252Z,23.31
2022-10-18T10:13:58.096Z,22.83
2022-10-18T10:16:27.228Z,22.73
2022-10-18T10:18:55.109Z,23.19
2022-10-18T10:21:24.882Z,23.30
2022-10-18T10:23:54.665Z,23.66
2022-10-18T10:26:24.202Z,23.78
2022-10-18T10:28:52.225Z,24.07
2022-10-18T10:31:27.838Z,24.19
2022-10-18T10:34:01.146Z,24.04
2022-10-18T10:36:31.802Z,24.25
2022-10-18T10:39:04.968Z,24.27
2022-10-18T10:41:33.537Z,24.09
2022-10-18T10:44:03.895Z,23.96
2022-10-18T10:46:36.524Z,23.86
2022-10-18T10:49:34.931Z,23.72
2022-10-18T10:52:08.333Z,23.89
2022-10-18T10:54:50.420Z,23.61
2022-10-18T10:57:24.092Z,23.54
2022-10-18T10:59:53.463Z,23.81
2022-10-18T11:02:22.673Z,23.69
2022-10-18T11:04:51.832Z,23.73
2022-10-18T11:07:27.584Z,23.80
2022-10-18T11:10:02.363Z,23.60
2022-10-18T11:12:35.036Z,23.61
2022-10-18T11:15:20.769Z,23.69
2022-10-18T11:18:02.594Z,23.71
2022-10-18T11:20:35.528Z,23.54
2022-10-18T11:23:10.593Z,23.70
2022-10-18T11:25:57.806Z,23.57
2022-10-18T11:28:39.210Z,23.25
2022-10-18T11:31:14.544Z,23.19
2022-10-18T11:34:08.723Z,23.29
2022-10-18T11:36:54.617Z,23.45
2022-10-18T11:39:43.338Z,23.35
2022-10-18T11:42:21.834Z,23.48
2022-10-18T11:44:59.233Z,23.42
2022-10-18T11:47:40.796Z,23.38
2022-10-18T11:50:25.092Z,23.39
2022-10-18T11:53:02.486Z,23.48
2022-10-18T11:55:42.148Z,23.60
2022-10-18T11:58:26.716Z,23.86
2022-10-18T12:01:01.594Z,23.78
2022-10-18T12:03:37.595Z,23.67
2022-10-18T12:06:12.491Z,23.16
2022-10-18T12:08:44.532Z,23.27
2022-10-18T12:11:18.150Z,23.45
2022-10-18T12:13:48.987Z,23.46
2022-10-18T12:16:33.570Z,23.11
2022-10-18T12:19:15.598Z,22.87
2022-10-18T12:21:43.330Z,22.88
2022-10-18T12:24:16.907Z,22.98
2022-10-18T12:26:47.950Z,22.67
2022-10-18T12:29:25.717Z,22.32
2022-10-18T12:31:57.350Z,22.35
2022-10-18T12:34:35.455Z,22.21
2022-10-18T12:37:37.615Z,22.32
2022-10-18T12:40:16.772Z,22.19
2022-10-18T12:42:52.890Z,22.19
2022-10-18T12:45:28.603Z,22.18
2022-10-18T12:48:00.429Z,22.34
2022-10-18T12:50:32.573Z,22.37
2022-10-18T12:53:16.644Z,22.29
2022-10-18T12:55:45.592Z,22.34
2022-10-18T12:58:27.053Z,22.59
2022-10-18T13:00:56.795Z,22.59
2022-10-18T13:04:00.552Z,23.07
2022-10-18T13:07:06.072Z,23.25
2022-10-18T13:09:35.298Z,22.99
2022-10-18T13:12:52.373Z,23.17
2022-10-18T13:15:40.965Z,23.22
2022-10-18T13:18:19.706Z,23.31
2022-10-18T13:21:09.404Z,23.54
2022-10-18T13:23:49.078Z,23.90
2022-10-18T13:26:23.083Z,24.08
2022-10-18T13:28:57.023Z,24.12
2022-10-18T13:31:37.605Z,23.89
2022-10-18T13:34:23.402Z,23.67
2022-10-18T13:36:57.766Z,23.53
2022-10-18T13:39:26.263Z,23.46
2022-10-18T13:42:20.669Z,23.40
2022-10-18T13:44:48.205Z,23.34
2022-10-18T13:47:32.988Z,22.80
2022-10-18T13:50:36.246Z,22.37
2022-10-18T13:53:34.455Z,22.00
2022-10-18T13:56:26.683Z,22.06
2022-10-18T13:59:14.951Z,21.97
2022-10-18T14:01:55.918Z,21.26
2022-10-18T14:05:06.196Z,21.01
2022-10-18T14:07:43.581Z,20.38
2022-10-18T14:10:33.314Z,19.63
2022-10-18T14:13:21.579Z,19.56
2022-10-18T14:15:51.895Z,19.37
2022-10-18T14:18:26.400Z,18.89
2022-10-18T14:21:13.235Z,18.70
2022-10-18T14:23:44.136Z,18.60
2022-10-18T14:26:15.268Z,18.72
2022-10-18T14:28:58.973Z,18.58
2022-10-18T14:31:28.218Z,18.54
2022-10-18T14:33:58.602Z,18.38
2022-10-18T14:36:34.185Z,18.08
2022-10-18T14:39:04.056Z,18.08
2022-10-18T14:41:33.176Z,17.83
2022-10-18T14:44:18.578Z,17.55
2022-10-18T14:46:48.571Z,17.63
2022-10-18T14:49:17.186Z,17.48
2022-10-18T14:51:48.832Z,17.34
2022-10-18T14:54:19.524Z,17.08
2022-10-18T14:56:48.237Z,17.15
2022-10-18T14:59:21.060Z,17.30
2022-10-18T15:01:55.233Z,17.36
2022-10-18T15:04:27.792Z,17.27
2022-10-18T15:06:59.384Z,17.32
2022-10-18T15:11:55.140Z,17.08
2022-10-18T15:14:23.013Z,17.22
2022-10-18T15:16:59.376Z,17.29
2022-10-18T15:19:33.709Z,17.20
2022-10-18T15:25:13.512Z,17.40
2022-10-18T15:27:43.437Z,17.38
2022-10-18T15:30:18.479Z,17.37
2022-10-18T15:32:52.089Z,17.31
2022-10-18T15:35:26.195Z,17.13
2022-10-18T15:37:56.890Z,17.14
2022-10-18T15:40:45.212Z,16.98
2022-10-18T15:43:36.318Z,16.83
2022-10-18T15:46:06.575Z,16.79
2022-10-18T15:48:36.892Z,16.92
2022-10-18T15:51:06.384Z,16.89
2022-10-18T15:53:50.725Z,16.99
2022-10-18T15:56:36.406Z,17.07
2022-10-18T15:59:07.057Z,16.98
2022-10-18T16:01:42.620Z,17.02
2022-10-18T16:04:17.122Z,17.09
2022-10-18T16:06:44.897Z,17.07
2022-10-18T16:09:17.723Z,17.24
2022-10-18T16:11:45.726Z,17.20
2022-10-18T16:14:13.810Z,17.07
2022-10-18T16:16:41.509Z,17.17
2022-10-18T16:19:13.580Z,17.00
2022-10-18T16:21:41.463Z,16.98
2022-10-18T16:24:15.877Z,16.74
2022-10-18T16:26:43.259Z,16.76
2022-10-18T16:29:13.759Z,16.86
2022-10-18T16:31:41.659Z,16.94
2022-10-18T16:34:09.395Z,17.02
2022-10-18T16:36:37.013Z,17.07
2022-10-18T16:39:07.338Z,17.10
2022-10-18T16:41:36.155Z,17.11
2022-10-18T16:44:03.942Z,16.99
2022-10-18T16:46:33.403Z,16.85
2022-10-18T16:49:02.055Z,16.85
2022-10-18T16:51:29.633Z,16.94
2022-10-18T16:53:57.415Z,16.92
2022-10-18T16:56:27.014Z,16.82
2022-10-18T16:58:56.426Z,16.81
2022-10-18T17:01:24.676Z,16.76
2022-10-18T17:03:52.859Z,16.93
2022-10-18T17:06:23.079Z,16.91
2022-10-18T17:08:52.292Z,16.73
2022-10-18T17:11:21.141Z,16.54
2022-10-18T17:13:48.959Z,16.59
2022-10-18T17:16:24.090Z,16.61
2022-10-18T17:18:51.926Z,16.76
2022-10-18T17:21:19.646Z,16.73
2022-10-18T17:23:47.992Z,16.60
2022-10-18T17:26:28.356Z,16.57
2022-10-18T17:28:59.483Z,16.65
2022-10-18T17:31:29.475Z,16.62
2022-10-18T17:33:58.210Z,16.80
2022-10-18T17:36:26.445Z,16.98
2022-10-18T17:38:56.710Z,16.94
2022-10-18T17:41:24.244Z,16.99
2022-10-18T17:43:52.303Z,16.86
2022-10-18T17:46:20.118Z,16.59
2022-10-18T17:48:50.904Z,16.74
2022-10-18T17:51:18.643Z,16.79
2022-10-18T17:53:46.755Z,16.87
2022-10-18T17:56:14.747Z,16.91
2022-10-18T17:58:42.624Z,16.76
2022-10-18T18:01:11.642Z,16.65
2022-10-18T18:03:39.801Z,16.75
2022-10-18T18:06:17.271Z,16.74
2022-10-18T18:08:45.743Z,16.59
2022-10-18T18:11:13.412Z,16.53
2022-10-18T18:13:41.405Z,16.53
2022-10-18T18:16:13.902Z,16.55
2022-10-18T18:18:42.500Z,16.51
2022-10-18T18:21:09.880Z,16.42
2022-10-18T18:23:39.314Z,16.33
2022-10-18T18:26:07.317Z,16.27
2022-10-18T18:28:35.814Z,16.29
2022-10-18T18:31:06.504Z,16.24
2022-10-18T18:33:34.542Z,16.15
2022-10-18T18:36:01.870Z,16.19
2022-10-18T18:38:29.905Z,16.17
2022-10-18T18:41:06.411Z,16.43
2022-10-18T18:43:34.929Z,16.47
2022-10-18T18:46:02.681Z,16.43
2022-10-18T18:48:32.440Z,16.36
2022-10-18T18:51:00.303Z,16.45
2022-10-18T18:53:29.659Z,16.35
2022-10-18T18:56:02.388Z,16.39
2022-10-18T18:58:32.515Z,16.44
2022-10-18T19:00:59.939Z,16.47
2022-10-18T19:03:32.111Z,16.33
2022-10-18T19:06:05.503Z,16.20
2022-10-18T19:08:36.141Z,16.25
2022-10-18T19:11:08.061Z,16.26
2022-10-18T19:13:38.511Z,16.27
2022-10-18T19:16:27.163Z,16.34
2022-10-18T19:18:59.955Z,16.34
2022-10-18T19:21:29.568Z,16.41
2022-10-18T19:23:57.860Z,16.37
2022-10-18T19:26:32.142Z,16.03
2022-10-18T19:29:08.106Z,15.92
2022-10-18T19:31:36.656Z,15.83
2022-10-18T19:34:05.886Z,15.72
2022-10-18T19:36:33.608Z,15.89
2022-10-18T19:39:01.256Z,16.03
2022-10-18T19:41:28.898Z,15.96
2022-10-18T19:43:57.242Z,16.12
2022-10-18T19:46:26.543Z,16.35
2022-10-18T19:48:54.136Z,16.40
2022-10-18T19:51:25.526Z,16.43
2022-10-18T19:53:56.667Z,16.19
2022-10-18T19:56:26.751Z,16.27
2022-10-18T19:58:58.346Z,16.38
2022-10-18T20:01:28.561Z,16.39
2022-10-18T20:03:57.051Z,16.36
2022-10-18T20:06:24.567Z,16.33
2022-10-18T20:08:52.760Z,16.39
2022-10-18T20:11:21.759Z,16.43
2022-10-18T20:13:50.457Z,16.50
2022-10-18T20:16:24.200Z,16.51
2022-10-18T20:19:00.767Z,16.53
2022-10-18T20:21:30.027Z,16.49
2022-10-18T20:23:58.245Z,16.42
2022-10-18T20:26:25.796Z,16.44
2022-10-18T20:28:55.023Z,16.43
2022-10-18T20:31:24.113Z,16.27
2022-10-18T20:33:54.793Z,16.32
2022-10-18T20:36:24.120Z,16.40
2022-10-18T20:38:52.352Z,16.31
2022-10-18T20:41:21.632Z,16.18
2022-10-18T20:43:53.685Z,16.28
2022-10-18T20:46:21.829Z,16.13
2022-10-18T20:48:50.284Z,16.07
2022-10-18T20:51:18.540Z,15.96
2022-10-18T20:53:47.991Z,16.00
2022-10-18T20:56:17.792Z,16.03
2022-10-18T20:58:46.823Z,15.95
2022-10-18T21:01:16.946Z,16.00
2022-10-18T21:03:46.855Z,16.10
2022-10-18T21:06:16.147Z,16.12
2022-10-18T21:08:44.725Z,16.08
2022-10-18T21:11:14.221Z,16.06
2022-10-18T21:13:41.951Z,16.03
2022-10-18T21:16:09.523Z,15.93
2022-10-18T21:18:37.704Z,16.07
2022-10-18T21:21:10.529Z,16.05
2022-10-18T21:23:38.589Z,15.78
2022-10-18T21:26:07.184Z,15.66
2022-10-18T21:28:36.481Z,15.74
2022-10-18T21:31:12.500Z,15.67
2022-10-18T21:33:40.596Z,15.60
2022-10-18T21:36:11.237Z,15.54
2022-10-18T21:38:39.498Z,15.50
2022-10-18T21:41:11.367Z,15.57
2022-10-18T21:43:44.355Z,15.49
2022-10-18T21:46:15.731Z,15.48
2022-10-18T21:48:45.394Z,15.57
2022-10-18T21:51:13.910Z,15.59
2022-10-18T21:53:43.183Z,15.58
2022-10-18T21:56:12.683Z,15.56
2022-10-18T21:58:42.506Z,15.56
2022-10-18T22:01:11.576Z,15.48
2022-10-18T22:03:39.949Z,15.39
2022-10-18T22:06:10.203Z,15.47
2022-10-18T22:08:42.956Z,15.64
2022-10-18T22:11:13.037Z,15.76
2022-10-18T22:13:42.700Z,15.84
2022-10-18T22:16:12.200Z,15.86
2022-10-18T22:18:40.565Z,15.72
2022-10-18T22:21:10.083Z,15.65
2022-10-18T22:23:39.587Z,15.73
2022-10-18T22:26:12.521Z,15.69
2022-10-18T22:28:43.908Z,15.59
2022-10-18T22:31:15.889Z,15.61
2022-10-18T22:33:44.263Z,15.60
2022-10-18T22:36:12.638Z,15.48
2022-10-18T22:38:40.438Z,15.54
2022-10-18T22:41:08.931Z,15.46
2022-10-18T22:43:38.685Z,15.49
2022-10-18T22:46:09.882Z,15.55
2022-10-18T22:56:55.906Z,15.37
2022-10-18T22:59:23.784Z,15.53
2022-10-18T23:01:52.813Z,15.37
2022-10-18T23:04:20.518Z,15.29
2022-10-18T23:06:47.836Z,15.19
2022-10-18T23:09:15.738Z,15.27
2022-10-18T23:11:43.542Z,15.32
2022-10-18T23:14:11.709Z,15.28
2022-10-18T23:16:39.249Z,15.12
2022-10-18T23:19:11.328Z,14.96
2022-10-18T23:21:38.735Z,14.93
2022-10-18T23:24:06.502Z,14.95
2022-10-18T23:26:34.258Z,15.05
2022-10-18T23:29:02.282Z,15.03
2022-10-18T23:31:31.533Z,15.05
2022-10-18T23:34:01.887Z,15.10
2022-10-18T23:36:31.794Z,14.90
2022-10-18T23:38:59.529Z,14.80
2022-10-18T23:41:26.920Z,14.79
2022-10-18T23:43:54.532Z,14.57
2022-10-18T23:46:21.966Z,14.54
2022-10-18T23:48:50.326Z,14.61
2022-10-18T23:51:18.162Z,14.63
2022-10-18T23:53:47.276Z,14.56
2022-10-18T23:56:16.364Z,14.59
2022-10-18T23:58:45.035Z,14.51
